Time;durP1;ratioP1;P1;durP2;ratioP2;P2;SDS_P1;SDS_P2;PMS_P1;PMS_P2;Temp;Humidity;BMP_temperature;BMP_pressure;BME280_temperature;BME280_humidity;BME280_pressure;Samples;Min_cycle;Max_cycle;Signal;HPM_P1;HPM_P2
2024/01/03 00:00:08;;;;;;;54.95;52.20;;;;;;;;;;5028209;28;20044;-54
2024/01/03 00:02:34;;;;;;;55.90;53.10;;;;;;;;;;5027520;28;20459;-56
2024/01/03 00:04:59;;;;;;;51.95;49.35;;;;;;;;;;5025876;28;20063;-56
2024/01/03 00:07:25;;;;;;;53.38;50.67;;;;;;;;;;5025556;28;20029;-56
2024/01/03 00:09:58;;;;;;;53.10;50.40;;;;;;;;;;5033468;28;20625;-57
2024/01/03 00:12:24;;;;;;;50.60;48.00;;;;;;;;;;5028776;28;20451;-57
2024/01/03 00:14:50;;;;;;;51.25;48.20;;;;;;;;;;5035753;28;20040;-57
2024/01/03 00:17:15;;;;;;;50.65;48.10;;;;;;;;;;5028427;28;20045;-56
2024/01/03 00:19:42;;;;;;;47.83;45.42;;;;;;;;;;5025843;28;20091;-56
2024/01/03 00:22:10;;;;;;;46.30;43.95;;;;;;;;;;5027750;28;20541;-57
2024/01/03 00:24:45;;;;;;;45.08;42.67;;;;;;;;;;5021655;28;20075;-56
2024/01/03 00:27:10;;;;;;;43.80;41.60;;;;;;;;;;5009823;28;20037;-58
2024/01/03 00:29:52;;;;;;;43.63;41.42;;;;;;;;;;5031783;28;20059;-57
2024/01/03 00:32:19;;;;;;;45.83;43.53;;;;;;;;;;5027718;28;20099;-56
2024/01/03 00:34:45;;;;;;;43.63;41.42;;;;;;;;;;5027596;28;20033;-56
2024/01/03 00:37:37;;;;;;;43.97;41.78;;;;;;;;;;5028774;28;20138;-56
2024/01/03 00:40:06;;;;;;;40.28;38.22;;;;;;;;;;5025165;28;20404;-54
2024/01/03 00:42:31;;;;;;;39.47;37.47;;;;;;;;;;5025355;28;20136;-56
2024/01/03 00:44:57;;;;;;;39.20;37.20;;;;;;;;;;5033502;28;20121;-56
2024/01/03 00:47:22;;;;;;;38.17;36.22;;;;;;;;;;5026792;28;20036;-56
2024/01/03 00:49:49;;;;;;;39.10;37.10;;;;;;;;;;5028880;28;20033;-56
2024/01/03 00:52:15;;;;;;;36.45;34.55;;;;;;;;;;5023627;28;20615;-56
2024/01/03 00:54:41;;;;;;;39.67;37.67;;;;;;;;;;5027959;28;20029;-57
2024/01/03 00:57:07;;;;;;;38.88;36.83;;;;;;;;;;5029315;28;20052;-57
2024/01/03 00:59:34;;;;;;;38.10;36.17;;;;;;;;;;5025864;28;20049;-57
2024/01/03 01:02:02;;;;;;;36.22;34.35;;;;;;;;;;5029215;28;20642;-58
2024/01/03 01:04:28;;;;;;;38.60;36.60;;;;;;;;;;5025233;28;20481;-57
2024/01/03 01:06:53;;;;;;;40.50;38.40;;;;;;;;;;5029537;28;20332;-57
2024/01/03 01:09:19;;;;;;;42.83;40.63;;;;;;;;;;5027307;28;20059;-57
2024/01/03 01:11:44;;;;;;;46.03;42.92;;;;;;;;;;5025696;28;20033;-58
2024/01/03 01:14:09;;;;;;;45.72;43.42;;;;;;;;;;5025886;28;20128;-58
2024/01/03 01:16:35;;;;;;;46.03;43.72;;;;;;;;;;5027763;28;20373;-58
2024/01/03 01:19:00;;;;;;;48.42;45.92;;;;;;;;;;5029872;28;20047;-56
2024/01/03 01:21:26;;;;;;;48.00;45.58;;;;;;;;;;5025837;28;20033;-56
2024/01/03 01:23:51;;;;;;;50.80;48.22;;;;;;;;;;5028641;28;20048;-56
2024/01/03 01:26:16;;;;;;;43.92;41.72;;;;;;;;;;5025362;28;20068;-56
2024/01/03 01:28:41;;;;;;;45.25;42.72;;;;;;;;;;5028093;28;20029;-57
2024/01/03 01:31:07;;;;;;;44.20;41.95;;;;;;;;;;5026976;28;20065;-58
2024/01/03 01:33:32;;;;;;;43.83;41.63;;;;;;;;;;5025311;28;20033;-56
2024/01/03 01:35:57;;;;;;;42.67;40.40;;;;;;;;;;5022825;28;20034;-55
2024/01/03 01:38:23;;;;;;;41.53;39.35;;;;;;;;;;5027753;28;20030;-54
2024/01/03 01:40:49;;;;;;;40.45;38.38;;;;;;;;;;5027904;28;20116;-58
2024/01/03 01:43:15;;;;;;;42.05;39.92;;;;;;;;;;5027682;28;20041;-56
2024/01/03 01:45:41;;;;;;;41.05;38.70;;;;;;;;;;5027152;28;20037;-54
2024/01/03 01:48:10;;;;;;;39.40;37.40;;;;;;;;;;5022234;28;20037;-58
2024/01/03 01:50:38;;;;;;;40.80;38.67;;;;;;;;;;5024831;28;20060;-57
2024/01/03 01:53:04;;;;;;;42.28;40.15;;;;;;;;;;5017167;28;20478;-56
2024/01/03 01:55:30;;;;;;;40.60;38.40;;;;;;;;;;5021003;28;20048;-54
2024/01/03 01:57:55;;;;;;;39.70;37.70;;;;;;;;;;5026956;28;20562;-54
2024/01/03 02:00:21;;;;;;;39.13;37.13;;;;;;;;;;5025193;28;20044;-56
2024/01/03 02:02:48;;;;;;;41.85;39.47;;;;;;;;;;5026152;28;20503;-56
2024/01/03 02:05:14;;;;;;;40.30;38.15;;;;;;;;;;5032990;28;20651;-56
2024/01/03 02:07:40;;;;;;;41.97;39.85;;;;;;;;;;5029306;28;20037;-54
2024/01/03 02:10:06;;;;;;;39.15;37.00;;;;;;;;;;5027030;28;20045;-56
2024/01/03 02:12:31;;;;;;;39.38;37.38;;;;;;;;;;5026436;28;20049;-57
2024/01/03 02:14:57;;;;;;;39.30;37.30;;;;;;;;;;5032155;28;20028;-55
2024/01/03 02:17:22;;;;;;;39.55;37.55;;;;;;;;;;5026439;28;20040;-57
2024/01/03 02:19:48;;;;;;;39.05;37.05;;;;;;;;;;5027482;28;20029;-56
2024/01/03 02:22:14;;;;;;;39.47;37.47;;;;;;;;;;5029180;28;20369;-57
2024/01/03 02:24:39;;;;;;;39.90;37.78;;;;;;;;;;5031013;28;20037;-57
2024/01/03 02:27:04;;;;;;;37.03;35.08;;;;;;;;;;5026284;28;20044;-56
2024/01/03 02:29:30;;;;;;;40.88;38.78;;;;;;;;;;5035779;28;20033;-58
2024/01/03 02:31:55;;;;;;;38.03;35.88;;;;;;;;;;5035048;28;20033;-57
2024/01/03 02:34:20;;;;;;;40.05;38.03;;;;;;;;;;5032531;28;20048;-57
2024/01/03 02:36:50;;;;;;;38.75;36.75;;;;;;;;;;5031606;28;20360;-55
2024/01/03 02:39:15;;;;;;;38.95;36.95;;;;;;;;;;5029237;28;20053;-56
2024/01/03 02:41:40;;;;;;;40.22;37.95;;;;;;;;;;5028461;28;20038;-56
2024/01/03 02:44:06;;;;;;;42.72;40.53;;;;;;;;;;5028021;28;20459;-56
2024/01/03 02:46:31;;;;;;;38.63;36.60;;;;;;;;;;5029243;28;20025;-56
2024/01/03 02:48:56;;;;;;;36.63;34.72;;;;;;;;;;5031354;28;20473;-57
2024/01/03 02:51:22;;;;;;;39.17;37.17;;;;;;;;;;5029874;28;20047;-57
2024/01/03 02:53:48;;;;;;;37.75;35.85;;;;;;;;;;5027841;28;20070;-55
2024/01/03 02:56:14;;;;;;;40.30;38.10;;;;;;;;;;5029061;28;20029;-57
2024/01/03 02:58:39;;;;;;;38.08;36.13;;;;;;;;;;5025834;28;20055;-57
2024/01/03 03:01:05;;;;;;;37.63;35.63;;;;;;;;;;5029502;28;20029;-56
2024/01/03 03:03:30;;;;;;;38.83;36.83;;;;;;;;;;5026990;28;20103;-57
2024/01/03 03:05:56;;;;;;;38.58;36.58;;;;;;;;;;5030325;28;20447;-57
2024/01/03 03:08:22;;;;;;;39.50;37.50;;;;;;;;;;5027745;28;20047;-57
2024/01/03 03:10:47;;;;;;;38.17;36.22;;;;;;;;;;5026636;28;20061;-57
2024/01/03 03:13:12;;;;;;;39.13;37.13;;;;;;;;;;5011824;28;20451;-55
2024/01/03 03:15:38;;;;;;;39.47;37.45;;;;;;;;;;5028066;28;20486;-56
2024/01/03 03:18:03;;;;;;;40.95;38.78;;;;;;;;;;5030726;28;20051;-57
2024/01/03 03:20:29;;;;;;;37.83;35.90;;;;;;;;;;5028455;28;20024;-56
2024/01/03 03:22:54;;;;;;;39.72;37.58;;;;;;;;;;5015498;28;20029;-57
2024/01/03 03:25:19;;;;;;;38.00;36.05;;;;;;;;;;5026230;28;20041;-57
2024/01/03 03:27:45;;;;;;;38.08;36.08;;;;;;;;;;5028229;28;20064;-57
2024/01/03 03:30:11;;;;;;;40.40;38.30;;;;;;;;;;5028742;28;20037;-57
2024/01/03 03:32:36;;;;;;;38.80;36.67;;;;;;;;;;5028681;28;20116;-57
2024/01/03 03:35:01;;;;;;;41.85;39.72;;;;;;;;;;5029834;28;20112;-57
2024/01/03 03:37:26;;;;;;;42.90;40.72;;;;;;;;;;5030156;28;20037;-57
2024/01/03 03:39:52;;;;;;;39.90;37.80;;;;;;;;;;5023053;28;20093;-56
2024/01/03 03:42:22;;;;;;;41.15;39.05;;;;;;;;;;5025023;28;20116;-57
2024/01/03 03:44:47;;;;;;;38.97;36.97;;;;;;;;;;5027167;28;20038;-56
2024/01/03 03:47:12;;;;;;;39.72;37.72;;;;;;;;;;5027549;28;20044;-56
2024/01/03 03:49:38;;;;;;;39.85;37.75;;;;;;;;;;5029595;28;20026;-54
2024/01/03 03:52:03;;;;;;;39.40;37.40;;;;;;;;;;5032749;28;20028;-53
2024/01/03 03:54:29;;;;;;;39.42;37.42;;;;;;;;;;5023994;28;20049;-53
2024/01/03 03:56:54;;;;;;;41.20;39.10;;;;;;;;;;5031942;28;20033;-54
2024/01/03 03:59:19;;;;;;;41.00;38.90;;;;;;;;;;5029636;28;20043;-56
2024/01/03 04:01:49;;;;;;;37.55;35.65;;;;;;;;;;5027207;28;20064;-57
2024/01/03 04:04:16;;;;;;;38.22;36.22;;;;;;;;;;5027289;28;20120;-54
2024/01/03 04:06:44;;;;;;;39.17;37.17;;;;;;;;;;5023173;28;20037;-56
2024/01/03 04:09:12;;;;;;;40.92;38.83;;;;;;;;;;5029974;28;20070;-55
2024/01/03 04:11:41;;;;;;;39.63;37.63;;;;;;;;;;5023989;28;20558;-52
2024/01/03 04:14:07;;;;;;;41.10;38.95;;;;;;;;;;5028525;28;20426;-56
2024/01/03 04:16:33;;;;;;;40.20;38.10;;;;;;;;;;5028991;28;20083;-54
2024/01/03 04:19:00;;;;;;;38.65;36.65;;;;;;;;;;5026733;28;20122;-54
2024/01/03 04:21:25;;;;;;;41.35;39.15;;;;;;;;;;5025824;28;20049;-56
2024/01/03 04:23:51;;;;;;;42.35;39.97;;;;;;;;;;5027497;28;20876;-55
2024/01/03 04:26:16;;;;;;;40.15;38.10;;;;;;;;;;5025826;28;20040;-55
2024/01/03 04:28:41;;;;;;;38.80;36.80;;;;;;;;;;5022774;28;20029;-55
2024/01/03 04:31:07;;;;;;;38.85;36.85;;;;;;;;;;5030070;28;20044;-55
2024/01/03 04:33:32;;;;;;;41.15;38.58;;;;;;;;;;5022303;28;20041;-56
2024/01/03 04:35:57;;;;;;;39.45;37.45;;;;;;;;;;5024953;28;20049;-56
2024/01/03 04:38:23;;;;;;;38.25;36.25;;;;;;;;;;5026633;28;20079;-55
2024/01/03 04:40:48;;;;;;;37.40;35.50;;;;;;;;;;5029372;28;20044;-56
2024/01/03 04:43:13;;;;;;;38.67;36.42;;;;;;;;;;5021728;28;20033;-57
2024/01/03 04:45:39;;;;;;;39.15;37.15;;;;;;;;;;5023054;28;20063;-57
2024/01/03 04:48:05;;;;;;;40.40;38.25;;;;;;;;;;5028303;28;20072;-58
2024/01/03 04:50:30;;;;;;;38.85;36.85;;;;;;;;;;5032008;28;20059;-58
2024/01/03 04:52:58;;;;;;;40.20;38.13;;;;;;;;;;5030431;28;20029;-58
2024/01/03 04:55:23;;;;;;;42.38;39.53;;;;;;;;;;5030078;28;20025;-58
2024/01/03 04:57:49;;;;;;;38.75;36.75;;;;;;;;;;5028129;28;20501;-58
2024/01/03 05:00:14;;;;;;;38.35;36.35;;;;;;;;;;5028627;28;20036;-58
2024/01/03 05:02:40;;;;;;;35.83;33.83;;;;;;;;;;5025215;28;20494;-57
2024/01/03 05:05:05;;;;;;;38.05;36.05;;;;;;;;;;5027925;28;20949;-57
2024/01/03 05:07:33;;;;;;;37.95;35.95;;;;;;;;;;5029850;28;20040;-58
2024/01/03 05:09:58;;;;;;;37.58;35.65;;;;;;;;;;5031708;28;20374;-57
2024/01/03 05:12:24;;;;;;;38.45;36.38;;;;;;;;;;5023345;28;20033;-57
2024/01/03 05:14:49;;;;;;;36.28;34.28;;;;;;;;;;5022038;28;20630;-58
2024/01/03 05:17:14;;;;;;;38.63;36.60;;;;;;;;;;5024291;28;20044;-56
2024/01/03 05:19:40;;;;;;;38.75;36.75;;;;;;;;;;5025407;28;20064;-58
2024/01/03 05:22:05;;;;;;;38.50;36.10;;;;;;;;;;5029168;28;20037;-58
2024/01/03 05:24:31;;;;;;;42.97;39.15;;;;;;;;;;5026193;28;20041;-58
2024/01/03 05:26:56;;;;;;;39.55;37.55;;;;;;;;;;5026850;28;20030;-58
2024/01/03 05:29:21;;;;;;;38.83;36.83;;;;;;;;;;5027843;28;20033;-57
2024/01/03 05:31:47;;;;;;;39.38;37.38;;;;;;;;;;5024184;28;20068;-54
2024/01/03 05:34:12;;;;;;;39.15;37.15;;;;;;;;;;5026718;28;20037;-58
2024/01/03 05:36:38;;;;;;;39.90;37.50;;;;;;;;;;5029214;28;20501;-56
2024/01/03 05:39:03;;;;;;;37.42;35.47;;;;;;;;;;5030834;28;20038;-56
2024/01/03 05:41:29;;;;;;;39.72;37.63;;;;;;;;;;5031318;28;20112;-55
2024/01/03 05:43:54;;;;;;;39.58;37.58;;;;;;;;;;5037653;28;20037;-59
2024/01/03 05:46:19;;;;;;;39.95;37.85;;;;;;;;;;5031835;28;20025;-56
2024/01/03 05:48:45;;;;;;;40.75;38.42;;;;;;;;;;5032263;28;20056;-53
2024/01/03 05:51:10;;;;;;;37.58;35.65;;;;;;;;;;5030573;28;20029;-56
2024/01/03 05:53:35;;;;;;;38.08;36.08;;;;;;;;;;5023528;28;20398;-56
2024/01/03 05:56:01;;;;;;;39.10;37.10;;;;;;;;;;5018043;28;20041;-55
2024/01/03 05:58:26;;;;;;;41.25;38.92;;;;;;;;;;5031848;28;20030;-54
2024/01/03 06:00:52;;;;;;;38.05;36.13;;;;;;;;;;5023733;28;20035;-59
2024/01/03 06:03:18;;;;;;;37.83;35.92;;;;;;;;;;5034254;28;20061;-60
2024/01/03 06:05:43;;;;;;;37.90;35.97;;;;;;;;;;5034410;28;20585;-60
2024/01/03 06:08:08;;;;;;;38.63;36.63;;;;;;;;;;5034363;28;20799;-60
2024/01/03 06:10:34;;;;;;;39.72;37.30;;;;;;;;;;5031500;28;20255;-60
2024/01/03 06:12:59;;;;;;;39.20;37.20;;;;;;;;;;5026484;28;20486;-60
2024/01/03 06:15:25;;;;;;;38.40;36.30;;;;;;;;;;5034650;28;20092;-60
2024/01/03 06:17:50;;;;;;;41.15;39.05;;;;;;;;;;5031347;28;20029;-60
2024/01/03 06:20:15;;;;;;;40.83;38.72;;;;;;;;;;5035418;28;20067;-60
2024/01/03 06:22:41;;;;;;;39.05;37.05;;;;;;;;;;5031772;28;20649;-60
2024/01/03 06:25:06;;;;;;;40.75;38.65;;;;;;;;;;5014885;28;20060;-60
2024/01/03 06:27:31;;;;;;;40.25;37.47;;;;;;;;;;5030215;28;20088;-60
2024/01/03 06:29:57;;;;;;;40.38;38.17;;;;;;;;;;5030176;28;20558;-60
2024/01/03 06:32:22;;;;;;;40.45;37.95;;;;;;;;;;5026287;28;20529;-60
2024/01/03 06:34:48;;;;;;;39.30;37.30;;;;;;;;;;5026202;28;20550;-60
2024/01/03 06:37:13;;;;;;;40.13;37.97;;;;;;;;;;5033368;28;20039;-60
2024/01/03 06:39:38;;;;;;;37.30;35.35;;;;;;;;;;5027028;28;20196;-60
2024/01/03 06:42:04;;;;;;;36.83;34.92;;;;;;;;;;5028370;28;20029;-60
2024/01/03 06:44:30;;;;;;;38.85;36.85;;;;;;;;;;5026231;28;20025;-60
2024/01/03 06:46:55;;;;;;;36.47;34.58;;;;;;;;;;5031066;28;20029;-60
2024/01/03 06:49:21;;;;;;;41.20;38.75;;;;;;;;;;5029095;28;20122;-60
2024/01/03 06:51:47;;;;;;;40.83;38.60;;;;;;;;;;5029812;28;20029;-60
2024/01/03 06:54:13;;;;;;;40.55;38.30;;;;;;;;;;5028118;28;20032;-60
2024/01/03 06:56:38;;;;;;;38.97;36.97;;;;;;;;;;5025111;28;20495;-60
2024/01/03 06:59:04;;;;;;;38.30;36.25;;;;;;;;;;5021784;28;20482;-60
2024/01/03 07:01:30;;;;;;;39.72;37.72;;;;;;;;;;5025594;28;20056;-59
2024/01/03 07:03:58;;;;;;;39.53;37.42;;;;;;;;;;5026786;28;20102;-60
2024/01/03 07:06:23;;;;;;;39.53;37.53;;;;;;;;;;5030576;28;20024;-60
2024/01/03 07:08:49;;;;;;;39.38;37.28;;;;;;;;;;5032974;28;20037;-60
2024/01/03 07:11:15;;;;;;;38.10;36.00;;;;;;;;;;5031488;28;20443;-60
2024/01/03 07:13:41;;;;;;;37.55;35.50;;;;;;;;;;5036256;28;20032;-60
2024/01/03 07:16:06;;;;;;;37.78;35.88;;;;;;;;;;5030030;28;20578;-60
2024/01/03 07:18:31;;;;;;;36.72;34.72;;;;;;;;;;5026806;28;20024;-60
2024/01/03 07:20:57;;;;;;;40.85;38.75;;;;;;;;;;5026667;28;20468;-60
2024/01/03 07:23:22;;;;;;;37.67;35.67;;;;;;;;;;5025829;28;20545;-59
2024/01/03 07:25:47;;;;;;;40.17;37.38;;;;;;;;;;5025375;28;20613;-59
2024/01/03 07:28:14;;;;;;;38.30;36.25;;;;;;;;;;5024136;28;20484;-59
2024/01/03 07:30:39;;;;;;;38.85;36.75;;;;;;;;;;5010465;28;20045;-60
2024/01/03 07:33:05;;;;;;;38.92;36.92;;;;;;;;;;5026579;28;20041;-60
2024/01/03 07:35:30;;;;;;;37.97;35.97;;;;;;;;;;5025996;28;20040;-60
2024/01/03 07:37:55;;;;;;;40.88;38.17;;;;;;;;;;5027469;28;20056;-60
2024/01/03 07:40:21;;;;;;;39.25;37.15;;;;;;;;;;5023672;28;20033;-60
2024/01/03 07:42:46;;;;;;;38.50;36.50;;;;;;;;;;5023055;28;20581;-60
2024/01/03 07:45:11;;;;;;;39.88;37.17;;;;;;;;;;5024721;28;20111;-60
2024/01/03 07:47:37;;;;;;;41.15;38.95;;;;;;;;;;5023089;28;20116;-60
2024/01/03 07:50:02;;;;;;;37.67;35.67;;;;;;;;;;5022475;28;20495;-60
2024/01/03 07:52:27;;;;;;;39.22;37.13;;;;;;;;;;5010499;28;20562;-60
2024/01/03 07:54:53;;;;;;;38.33;36.33;;;;;;;;;;5025252;28;20557;-60
2024/01/03 07:57:19;;;;;;;38.22;36.22;;;;;;;;;;5022996;28;20337;-60
2024/01/03 07:59:45;;;;;;;39.78;37.55;;;;;;;;;;5025761;28;20064;-60
2024/01/03 08:02:13;;;;;;;39.05;36.63;;;;;;;;;;5026579;28;20052;-60
2024/01/03 08:04:39;;;;;;;40.97;38.55;;;;;;;;;;5024899;28;20055;-60
2024/01/03 08:07:05;;;;;;;39.83;37.80;;;;;;;;;;5030701;28;20037;-60
2024/01/03 08:09:32;;;;;;;38.45;36.47;;;;;;;;;;5024200;28;20052;-60
2024/01/03 08:11:57;;;;;;;37.40;35.10;;;;;;;;;;5022755;28;20021;-60
2024/01/03 08:14:23;;;;;;;38.53;36.53;;;;;;;;;;5025627;28;20041;-60
2024/01/03 08:16:48;;;;;;;41.33;39.22;;;;;;;;;;5024069;28;20125;-60
2024/01/03 08:19:14;;;;;;;37.28;35.38;;;;;;;;;;5022414;28;20465;-60
2024/01/03 08:21:39;;;;;;;38.53;36.25;;;;;;;;;;5031778;28;20725;-60
2024/01/03 08:24:05;;;;;;;37.80;35.88;;;;;;;;;;5029360;28;20043;-60
2024/01/03 08:26:31;;;;;;;38.33;36.38;;;;;;;;;;5030660;28;20060;-60
2024/01/03 08:28:56;;;;;;;37.10;35.20;;;;;;;;;;5024389;28;20033;-61
2024/01/03 08:31:22;;;;;;;39.97;37.97;;;;;;;;;;5025958;28;20585;-60
2024/01/03 08:33:47;;;;;;;39.30;37.30;;;;;;;;;;5031270;28;20354;-60
2024/01/03 08:36:14;;;;;;;39.83;37.70;;;;;;;;;;5026441;28;20502;-60
2024/01/03 08:38:40;;;;;;;40.88;38.55;;;;;;;;;;5031409;28;20029;-60
2024/01/03 08:41:19;;;;;;;38.75;36.67;;;;;;;;;;5024741;28;20140;-60
2024/01/03 08:43:45;;;;;;;37.67;35.72;;;;;;;;;;5021634;28;20022;-60
2024/01/03 08:46:11;;;;;;;36.78;34.88;;;;;;;;;;5024922;28;20033;-60
2024/01/03 08:48:40;;;;;;;37.70;35.70;;;;;;;;;;5025694;28;20485;-60
2024/01/03 08:51:11;;;;;;;39.08;36.88;;;;;;;;;;5025831;28;20072;-60
2024/01/03 08:53:36;;;;;;;39.05;37.05;;;;;;;;;;5020172;28;20374;-60
2024/01/03 08:56:05;;;;;;;37.83;35.90;;;;;;;;;;5025370;28;20037;-61
2024/01/03 08:58:30;;;;;;;35.30;33.50;;;;;;;;;;5022421;28;20061;-60
2024/01/03 09:00:55;;;;;;;36.53;34.53;;;;;;;;;;5028545;28;20090;-60
2024/01/03 09:03:21;;;;;;;33.85;32.15;;;;;;;;;;5024429;28;20029;-60
2024/01/03 09:05:46;;;;;;;36.65;34.78;;;;;;;;;;5020199;28;20029;-60
2024/01/03 09:08:11;;;;;;;33.42;31.73;;;;;;;;;;5023847;28;20044;-60
2024/01/03 09:10:37;;;;;;;36.03;33.78;;;;;;;;;;5024055;28;20462;-60
2024/01/03 09:13:02;;;;;;;37.22;35.33;;;;;;;;;;5022615;28;20033;-60
2024/01/03 09:15:28;;;;;;;36.97;35.08;;;;;;;;;;5019489;28;20034;-60
2024/01/03 09:17:53;;;;;;;38.70;35.08;;;;;;;;;;5022589;28;20039;-60
2024/01/03 09:20:19;;;;;;;37.28;35.38;;;;;;;;;;5021870;28;20060;-60
2024/01/03 09:22:44;;;;;;;37.90;35.90;;;;;;;;;;5023842;28;20053;-60
2024/01/03 09:25:10;;;;;;;34.63;32.85;;;;;;;;;;5023962;28;20049;-60
2024/01/03 09:27:35;;;;;;;37.25;35.13;;;;;;;;;;5025602;28;20075;-60
2024/01/03 09:30:02;;;;;;;35.85;34.03;;;;;;;;;;5025191;28;20057;-60
2024/01/03 09:32:27;;;;;;;36.95;35.05;;;;;;;;;;5024977;28;20041;-60
2024/01/03 09:34:53;;;;;;;32.78;31.08;;;;;;;;;;5030957;28;20029;-60
2024/01/03 09:37:18;;;;;;;32.47;30.02;;;;;;;;;;5026787;28;20026;-60
2024/01/03 09:39:43;;;;;;;31.85;30.08;;;;;;;;;;5020216;28;20383;-60
2024/01/03 09:42:09;;;;;;;30.98;29.35;;;;;;;;;;5026659;28;20124;-60
2024/01/03 09:44:35;;;;;;;31.30;29.67;;;;;;;;;;5025245;28;20033;-60
2024/01/03 09:47:01;;;;;;;32.38;30.70;;;;;;;;;;5026377;28;20477;-60
2024/01/03 09:49:26;;;;;;;31.77;30.13;;;;;;;;;;5026878;28;20033;-60
2024/01/03 09:51:53;;;;;;;34.13;32.35;;;;;;;;;;5025458;28;20041;-60
2024/01/03 09:54:19;;;;;;;34.53;32.72;;;;;;;;;;5025368;28;20037;-60
2024/01/03 09:56:45;;;;;;;35.25;33.45;;;;;;;;;;5022614;28;20040;-60
2024/01/03 09:59:11;;;;;;;34.78;32.97;;;;;;;;;;5027992;28;20069;-60
2024/01/03 10:01:37;;;;;;;34.45;32.65;;;;;;;;;;5022701;28;20057;-58
2024/01/03 10:04:05;;;;;;;34.25;32.45;;;;;;;;;;5022387;28;20053;-60
2024/01/03 10:06:30;;;;;;;36.72;34.63;;;;;;;;;;5025339;28;20030;-60
2024/01/03 10:09:02;;;;;;;36.67;34.78;;;;;;;;;;5025732;28;20061;-60
2024/01/03 10:11:28;;;;;;;34.83;32.95;;;;;;;;;;5021222;28;20036;-60
2024/01/03 10:13:55;;;;;;;36.83;34.92;;;;;;;;;;5025325;28;20041;-60
2024/01/03 10:16:27;;;;;;;35.70;33.60;;;;;;;;;;5024037;28;20433;-61
2024/01/03 10:19:17;;;;;;;36.25;34.35;;;;;;;;;;5025685;28;20476;-60
2024/01/03 10:21:49;;;;;;;35.25;33.45;;;;;;;;;;5025498;28;20048;-60
2024/01/03 10:24:19;;;;;;;37.25;35.28;;;;;;;;;;5027376;28;20036;-60
2024/01/03 10:26:45;;;;;;;37.50;35.47;;;;;;;;;;5031747;28;20100;-60
2024/01/03 10:29:15;;;;;;;36.42;34.45;;;;;;;;;;5030011;28;20041;-60
2024/01/03 10:31:41;;;;;;;37.72;35.50;;;;;;;;;;5030131;28;20033;-60
2024/01/03 10:34:15;;;;;;;34.30;32.53;;;;;;;;;;5035138;28;20055;-61
2024/01/03 10:36:42;;;;;;;35.70;33.90;;;;;;;;;;5029227;28;20084;-60
2024/01/03 10:39:13;;;;;;;36.28;34.38;;;;;;;;;;5028075;28;20116;-60
2024/01/03 10:41:40;;;;;;;39.08;36.97;;;;;;;;;;5031193;28;20183;-60
2024/01/03 10:44:06;;;;;;;37.00;35.08;;;;;;;;;;5026701;28;20406;-61
2024/01/03 10:46:31;;;;;;;37.60;35.60;;;;;;;;;;5027364;28;20045;-61
2024/01/03 10:48:56;;;;;;;36.50;34.63;;;;;;;;;;5030071;28;20045;-61
2024/01/03 10:51:24;;;;;;;37.58;35.58;;;;;;;;;;5032182;28;20045;-60
2024/01/03 10:53:54;;;;;;;40.55;38.40;;;;;;;;;;5031735;28;20075;-60
2024/01/03 10:56:20;;;;;;;40.20;37.83;;;;;;;;;;5032699;28;20030;-60
2024/01/03 10:58:46;;;;;;;42.28;40.05;;;;;;;;;;5029674;28;20033;-61
2024/01/03 11:01:23;;;;;;;37.60;35.63;;;;;;;;;;5028131;28;20037;-60
2024/01/03 11:04:10;;;;;;;39.92;37.63;;;;;;;;;;5029861;28;20037;-60
2024/01/03 11:06:41;;;;;;;39.58;37.58;;;;;;;;;;5026996;28;20549;-60
2024/01/03 11:09:07;;;;;;;39.40;37.30;;;;;;;;;;5029534;28;20076;-60
2024/01/03 11:11:39;;;;;;;36.20;34.33;;;;;;;;;;5031582;28;20049;-60
2024/01/03 11:14:21;;;;;;;37.75;35.08;;;;;;;;;;5030937;28;20028;-60
2024/01/03 11:16:47;;;;;;;36.90;34.97;;;;;;;;;;5026729;28;20065;-60
2024/01/03 11:19:13;;;;;;;34.47;32.67;;;;;;;;;;5030460;28;20021;-61
2024/01/03 11:21:43;;;;;;;36.13;33.95;;;;;;;;;;5027221;28;20411;-60
2024/01/03 11:24:20;;;;;;;35.05;33.25;;;;;;;;;;5026080;28;20061;-60
2024/01/03 11:26:52;;;;;;;35.40;33.60;;;;;;;;;;5024574;28;20037;-60
2024/01/03 11:29:35;;;;;;;35.92;34.03;;;;;;;;;;5025992;28;20168;-60
2024/01/03 11:32:04;;;;;;;36.25;34.35;;;;;;;;;;5026382;28;20033;-60
2024/01/03 11:34:42;;;;;;;34.80;32.85;;;;;;;;;;5026981;28;21554;-60
2024/01/03 11:37:30;;;;;;;36.83;34.92;;;;;;;;;;5022874;28;20434;-61
2024/01/03 11:39:57;;;;;;;34.33;32.53;;;;;;;;;;5031607;28;20045;-60
2024/01/03 11:42:33;;;;;;;35.22;33.28;;;;;;;;;;5025723;28;20107;-60
2024/01/03 11:45:13;;;;;;;35.35;33.35;;;;;;;;;;5022928;28;20040;-60
2024/01/03 11:47:40;;;;;;;36.13;34.27;;;;;;;;;;5023322;28;20028;-61
2024/01/03 11:50:08;;;;;;;36.50;34.60;;;;;;;;;;5028926;28;20296;-61
2024/01/03 11:52:39;;;;;;;37.60;35.35;;;;;;;;;;5028756;28;20040;-60
2024/01/03 11:55:12;;;;;;;38.13;36.03;;;;;;;;;;5028887;28;20104;-60
2024/01/03 11:57:43;;;;;;;36.28;34.17;;;;;;;;;;5025825;28;20041;-61
2024/01/03 12:00:10;;;;;;;34.45;32.55;;;;;;;;;;5027910;28;20029;-60
2024/01/03 12:02:36;;;;;;;33.55;31.85;;;;;;;;;;5025699;28;20037;-60
2024/01/03 12:05:04;;;;;;;34.28;32.47;;;;;;;;;;5034885;28;20122;-61
2024/01/03 12:07:34;;;;;;;34.10;32.35;;;;;;;;;;5028652;28;20045;-60
2024/01/03 12:10:00;;;;;;;34.53;32.72;;;;;;;;;;5026126;28;20619;-61
2024/01/03 12:12:25;;;;;;;33.45;31.75;;;;;;;;;;5029081;28;20049;-60
2024/01/03 12:14:54;;;;;;;34.22;32.42;;;;;;;;;;5025483;28;20029;-61
2024/01/03 12:17:27;;;;;;;35.42;33.55;;;;;;;;;;5027165;28;20072;-61
2024/01/03 12:19:57;;;;;;;33.97;32.20;;;;;;;;;;5028397;28;20037;-61
2024/01/03 12:22:25;;;;;;;34.20;32.42;;;;;;;;;;5033169;28;20037;-61
2024/01/03 12:24:51;;;;;;;32.75;31.05;;;;;;;;;;5027949;28;20479;-61
2024/01/03 12:27:24;;;;;;;34.05;32.08;;;;;;;;;;5026247;28;20066;-60
2024/01/03 12:29:51;;;;;;;35.78;33.78;;;;;;;;;;5025731;28;20033;-60
2024/01/03 12:32:20;;;;;;;34.17;32.28;;;;;;;;;;5025406;28;20037;-61
2024/01/03 12:34:47;;;;;;;34.30;32.53;;;;;;;;;;5027335;28;20065;-60
2024/01/03 12:37:13;;;;;;;32.55;30.85;;;;;;;;;;5030749;28;20029;-61
2024/01/03 12:39:39;;;;;;;34.92;33.08;;;;;;;;;;5031286;28;20126;-61
2024/01/03 12:42:07;;;;;;;31.88;30.17;;;;;;;;;;5028704;28;20134;-59
2024/01/03 12:44:32;;;;;;;33.83;31.13;;;;;;;;;;5030435;28;20037;-60
2024/01/03 12:46:58;;;;;;;33.15;31.35;;;;;;;;;;5025801;28;20368;-59
2024/01/03 12:49:23;;;;;;;32.33;30.63;;;;;;;;;;5025844;28;20029;-59
2024/01/03 12:51:49;;;;;;;32.40;30.70;;;;;;;;;;5026385;28;20132;-59
2024/01/03 12:54:14;;;;;;;31.58;29.95;;;;;;;;;;5028131;28;20403;-59
2024/01/03 12:56:39;;;;;;;30.85;29.25;;;;;;;;;;5021137;28;20617;-60
2024/01/03 12:59:05;;;;;;;32.53;30.83;;;;;;;;;;5011656;28;20701;-59
2024/01/03 13:01:30;;;;;;;30.30;28.60;;;;;;;;;;5026350;28;20041;-59
2024/01/03 13:03:55;;;;;;;31.55;29.90;;;;;;;;;;5027624;28;20029;-59
2024/01/03 13:06:21;;;;;;;31.27;29.67;;;;;;;;;;5028721;28;20048;-59
2024/01/03 13:08:46;;;;;;;32.15;30.45;;;;;;;;;;5029767;28;20034;-59
2024/01/03 13:11:11;;;;;;;33.53;31.63;;;;;;;;;;5025163;28;20572;-59
2024/01/03 13:13:37;;;;;;;31.48;29.83;;;;;;;;;;5025244;28;20513;-59
2024/01/03 13:16:03;;;;;;;33.88;31.85;;;;;;;;;;5025656;28;20041;-59
2024/01/03 13:18:28;;;;;;;31.65;29.75;;;;;;;;;;5026112;28;20180;-59
2024/01/03 13:20:53;;;;;;;30.95;29.35;;;;;;;;;;5010630;28;20151;-59
2024/01/03 13:23:19;;;;;;;32.20;30.50;;;;;;;;;;5028012;28;20030;-56
2024/01/03 13:25:44;;;;;;;31.58;29.98;;;;;;;;;;5021487;28;20040;-55
2024/01/03 13:28:09;;;;;;;33.63;31.77;;;;;;;;;;5021476;28;20044;-59
2024/01/03 13:30:35;;;;;;;31.27;29.63;;;;;;;;;;5030024;28;20360;-60
2024/01/03 13:33:00;;;;;;;33.85;31.95;;;;;;;;;;5027446;28;20379;-60
2024/01/03 13:35:26;;;;;;;32.15;30.45;;;;;;;;;;5027809;28;20379;-60
2024/01/03 13:37:51;;;;;;;31.85;30.20;;;;;;;;;;5030715;28;20363;-60
2024/01/03 13:40:17;;;;;;;31.90;30.25;;;;;;;;;;5028858;28;20359;-60
2024/01/03 13:42:43;;;;;;;31.80;29.70;;;;;;;;;;5025694;28;20132;-60
2024/01/03 13:45:09;;;;;;;32.10;30.40;;;;;;;;;;5028554;28;20038;-56
2024/01/03 13:47:34;;;;;;;30.25;28.60;;;;;;;;;;5023594;28;20031;-56
2024/01/03 13:50:00;;;;;;;32.53;30.75;;;;;;;;;;5026686;28;20044;-53
2024/01/03 13:52:25;;;;;;;31.42;29.80;;;;;;;;;;5025843;28;20360;-56
2024/01/03 13:54:51;;;;;;;31.60;29.98;;;;;;;;;;5024272;28;20178;-53
2024/01/03 13:57:16;;;;;;;32.42;30.50;;;;;;;;;;5026229;28;20045;-53
2024/01/03 13:59:42;;;;;;;31.10;29.50;;;;;;;;;;5029534;28;20040;-54
2024/01/03 14:02:07;;;;;;;31.23;29.63;;;;;;;;;;5027747;28;20072;-53
2024/01/03 14:04:32;;;;;;;31.90;30.20;;;;;;;;;;5028967;28;20370;-53
2024/01/03 14:06:57;;;;;;;32.33;30.52;;;;;;;;;;5032589;28;20382;-52
2024/01/03 14:09:23;;;;;;;31.63;30.02;;;;;;;;;;5026359;28;20041;-55
2024/01/03 14:11:48;;;;;;;33.35;31.65;;;;;;;;;;5033101;28;20117;-54